createdAt,value
2023-03-10T00:00:58.903Z,89.42
2023-03-10T00:01:58.889Z,89.31
2023-03-10T00:02:59.251Z,89.00
2023-03-10T00:03:58.878Z,89.00
2023-03-10T00:04:58.912Z,89.62
2023-03-10T00:05:58.899Z,89.62
2023-03-10T00:06:58.875Z,89.92
2023-03-10T00:07:58.860Z,89.92
2023-03-10T00:08:58.884Z,89.72
2023-03-10T00:09:58.820Z,89.62
2023-03-10T00:10:58.834Z,89.92
2023-03-10T00:11:58.819Z,89.11
2023-03-10T00:12:58.806Z,89.62
2023-03-10T00:13:58.790Z,89.00
2023-03-10T00:14:58.811Z,89.92
2023-03-10T00:15:58.834Z,89.62
2023-03-10T00:16:58.769Z,89.00
2023-03-10T00:17:58.783Z,90.13
2023-03-10T00:18:58.774Z,90.03
2023-03-10T00:19:58.749Z,89.51
2023-03-10T00:20:58.817Z,89.89
2023-03-10T00:21:58.753Z,88.96
2023-03-10T00:22:58.725Z,90.19
2023-03-10T00:23:58.731Z,89.83
2023-03-10T00:24:58.710Z,89.92
2023-03-10T00:25:58.710Z,90.34
2023-03-10T00:26:58.756Z,90.03
2023-03-10T00:27:58.699Z,90.03
2023-03-10T00:28:58.693Z,90.19
2023-03-10T00:29:58.704Z,90.13
2023-03-10T00:30:58.739Z,89.92
2023-03-10T00:31:58.643Z,90.13
2023-03-10T00:32:58.728Z,90.03
2023-03-10T00:33:58.653Z,90.13
2023-03-10T00:34:58.658Z,89.62
2023-03-10T00:35:58.697Z,90.13
2023-03-10T00:36:58.649Z,90.03
2023-03-10T00:37:58.623Z,89.37
2023-03-10T00:38:58.657Z,90.03
2023-03-10T00:39:58.646Z,91.01
2023-03-10T00:40:58.596Z,90.64
2023-03-10T00:41:58.593Z,90.23
2023-03-10T00:42:58.604Z,90.44
2023-03-10T00:43:58.610Z,90.84
2023-03-10T00:44:58.627Z,90.13
2023-03-10T00:45:58.637Z,90.75
2023-03-10T00:46:58.551Z,90.54
2023-03-10T00:47:58.565Z,90.23
2023-03-10T00:48:58.542Z,90.64
2023-03-10T00:49:58.545Z,90.64
2023-03-10T00:50:58.570Z,90.75
2023-03-10T00:51:58.580Z,90.64
2023-03-10T00:52:58.531Z,91.05
2023-03-10T00:53:58.508Z,90.54
2023-03-10T00:54:58.510Z,90.95
2023-03-10T00:55:58.505Z,90.75
2023-03-10T00:56:58.836Z,90.84
2023-03-10T00:57:58.481Z,90.64
2023-03-10T00:58:58.491Z,90.54
2023-03-10T00:59:58.458Z,90.19
2023-03-10T01:00:58.545Z,89.62
2023-03-10T01:01:58.522Z,90.09
2023-03-10T01:02:58.488Z,90.19
2023-03-10T01:03:58.470Z,90.75
2023-03-10T01:04:58.454Z,91.01
2023-03-10T01:05:58.440Z,90.44
2023-03-10T01:06:58.455Z,90.95
2023-03-10T01:07:58.419Z,90.54
2023-03-10T01:08:58.710Z,91.05
2023-03-10T01:09:58.412Z,90.50
2023-03-10T01:10:58.404Z,91.01
2023-03-10T01:11:58.389Z,90.81
2023-03-10T01:12:58.445Z,92.18
2023-03-10T01:13:58.412Z,92.08
2023-03-10T01:14:58.409Z,91.97
2023-03-10T01:15:58.433Z,92.28
2023-03-10T01:16:58.363Z,92.18
2023-03-10T01:17:58.346Z,92.08
2023-03-10T01:18:58.338Z,92.69
2023-03-10T01:19:58.336Z,92.49
2023-03-10T01:20:58.388Z,92.59
2023-03-10T01:21:58.301Z,92.08
2023-03-10T01:22:58.332Z,92.03
2023-03-10T01:23:58.331Z,91.93
2023-03-10T01:24:58.294Z,92.18
2023-03-10T01:25:58.276Z,92.59
2023-03-10T01:26:58.345Z,92.59
2023-03-10T01:27:58.298Z,92.18
2023-03-10T01:28:58.403Z,92.49
2023-03-10T01:29:58.248Z,92.38
2023-03-10T01:30:58.252Z,92.28
2023-03-10T01:31:58.245Z,91.73
2023-03-10T01:32:58.471Z,92.08
2023-03-10T01:33:58.227Z,92.28
2023-03-10T01:34:58.243Z,91.22
2023-03-10T01:35:58.226Z,91.46
2023-03-10T01:36:58.201Z,91.26
2023-03-10T01:37:58.233Z,90.95
2023-03-10T01:38:58.214Z,91.01
2023-03-10T01:39:58.175Z,91.22
2023-03-10T01:40:58.170Z,90.60
2023-03-10T01:41:58.157Z,90.39
2023-03-10T01:42:58.163Z,89.98
2023-03-10T01:43:58.162Z,89.92
2023-03-10T01:44:58.201Z,89.27
2023-03-10T01:45:58.134Z,89.58
2023-03-10T01:46:58.233Z,89.17
2023-03-10T01:47:58.153Z,89.68
2023-03-10T01:48:58.103Z,89.27
2023-03-10T01:49:58.099Z,89.68
2023-03-10T01:50:58.124Z,88.10
2023-03-10T01:51:58.095Z,88.76
2023-03-10T01:52:58.086Z,88.92
2023-03-10T01:53:58.068Z,89.78
2023-03-10T01:54:58.093Z,90.15
2023-03-10T01:55:58.062Z,89.98
2023-03-10T01:56:58.090Z,91.01
2023-03-10T01:57:58.051Z,91.22
2023-03-10T01:58:58.045Z,91.87
2023-03-10T01:59:58.038Z,92.55
2023-03-10T02:00:58.090Z,93.00
2023-03-10T02:01:58.097Z,93.20
2023-03-10T02:02:58.025Z,93.41
2023-03-10T02:03:58.024Z,94.07
2023-03-10T02:04:58.017Z,94.17
2023-03-10T02:05:58.006Z,94.99
2023-03-10T02:06:57.974Z,94.99
2023-03-10T02:07:57.980Z,95.50
2023-03-10T02:08:58.039Z,95.91
2023-03-10T02:09:57.960Z,96.57
2023-03-10T02:10:57.982Z,96.47
2023-03-10T02:11:57.981Z,96.78
2023-03-10T02:12:57.961Z,97.39
2023-03-10T02:13:57.931Z,97.39
2023-03-10T02:14:58.417Z,97.08
2023-03-10T02:15:57.969Z,97.70
2023-03-10T02:16:57.932Z,96.88
2023-03-10T02:17:57.968Z,97.80
2023-03-10T02:18:57.889Z,98.52
2023-03-10T02:19:57.902Z,98.36
2023-03-10T02:20:57.914Z,98.97
2023-03-10T02:21:58.024Z,99.08
2023-03-10T02:22:57.879Z,98.57
2023-03-10T02:24:01.289Z,98.16
2023-03-10T02:24:57.886Z,99.08
2023-03-10T02:25:57.839Z,99.18
2023-03-10T02:26:57.897Z,98.87
2023-03-10T02:27:57.843Z,98.87
2023-03-10T02:28:57.829Z,98.97
2023-03-10T02:29:59.662Z,99.28
2023-03-10T02:30:57.850Z,99.28
2023-03-10T02:31:57.862Z,99.99
2023-03-10T02:32:57.850Z,99.99
2023-03-10T02:33:57.839Z,99.99
2023-03-10T02:34:57.797Z,99.99
2023-03-10T02:35:57.823Z,99.99
2023-03-10T02:36:57.770Z,99.99
2023-03-10T02:37:57.773Z,99.99
2023-03-10T02:38:57.789Z,99.99
2023-03-10T02:39:57.736Z,99.99
2023-03-10T02:40:57.733Z,99.99
2023-03-10T02:41:57.736Z,99.99
2023-03-10T02:42:57.737Z,99.99
2023-03-10T02:43:57.706Z,99.99
2023-03-10T02:45:19.073Z,99.99
2023-03-10T02:45:58.846Z,99.99
2023-03-10T02:46:57.685Z,99.99
2023-03-10T02:47:57.699Z,99.99
2023-03-10T02:48:57.693Z,99.99
2023-03-10T02:49:57.821Z,99.99
2023-03-10T02:50:57.714Z,99.99
2023-03-10T02:51:57.696Z,99.99
2023-03-10T02:52:57.657Z,99.99
2023-03-10T02:53:57.664Z,99.99
2023-03-10T02:54:57.634Z,99.99
2023-03-10T02:55:57.651Z,99.99
2023-03-10T02:56:57.749Z,99.99
2023-03-10T02:57:57.753Z,99.99
2023-03-10T02:58:57.607Z,99.99
2023-03-10T02:59:57.681Z,99.99
2023-03-10T03:00:57.684Z,99.99
2023-03-10T03:01:57.609Z,99.99
2023-03-10T03:02:57.630Z,99.99
2023-03-10T03:03:57.670Z,99.99
2023-03-10T03:04:57.578Z,99.99
2023-03-10T03:05:57.579Z,99.99
2023-03-10T03:06:57.534Z,99.99
2023-03-10T03:07:57.573Z,99.99
2023-03-10T03:08:57.584Z,99.99
2023-03-10T03:09:57.521Z,99.99
2023-03-10T03:10:57.516Z,99.99
2023-03-10T03:11:57.536Z,99.99
2023-03-10T03:12:57.511Z,99.99
2023-03-10T03:13:57.516Z,99.99
2023-03-10T03:14:57.531Z,99.99
2023-03-10T03:15:57.507Z,99.99
2023-03-10T03:16:57.702Z,99.99
2023-03-10T03:17:57.470Z,99.99
2023-03-10T03:18:57.480Z,99.99
2023-03-10T03:19:57.473Z,99.99
2023-03-10T03:20:58.048Z,99.99
2023-03-10T03:21:57.461Z,99.99
2023-03-10T03:22:57.470Z,99.99
2023-03-10T03:23:57.454Z,99.99
2023-03-10T03:24:57.415Z,99.99
2023-03-10T03:25:57.408Z,99.99
2023-03-10T03:26:57.438Z,99.99
2023-03-10T03:27:57.444Z,99.99
2023-03-10T03:28:57.404Z,99.99
2023-03-10T03:29:57.400Z,99.99
2023-03-10T03:30:57.405Z,99.99
2023-03-10T03:31:57.442Z,99.99
2023-03-10T03:32:57.427Z,99.99
2023-03-10T03:33:57.375Z,99.99
2023-03-10T03:34:57.350Z,99.99
2023-03-10T03:35:57.376Z,99.99
2023-03-10T03:36:57.356Z,99.99
2023-03-10T03:37:57.311Z,99.99
2023-03-10T03:38:57.409Z,99.99
2023-03-10T03:39:57.332Z,99.99
2023-03-10T03:40:57.329Z,99.99
2023-03-10T03:41:57.453Z,99.99
2023-03-10T03:42:57.311Z,99.99
2023-03-10T03:43:57.294Z,99.99
2023-03-10T03:44:57.328Z,99.99
2023-03-10T03:45:57.300Z,99.99
2023-03-10T03:46:57.273Z,99.99
2023-03-10T03:47:57.250Z,99.99
2023-03-10T03:48:57.252Z,99.99
2023-03-10T03:49:57.246Z,99.99
2023-03-10T03:50:57.308Z,99.99
2023-03-10T03:51:57.218Z,99.99
2023-03-10T03:52:57.206Z,99.99
2023-03-10T03:53:57.206Z,99.38
2023-03-10T03:54:57.219Z,99.69
2023-03-10T03:55:57.259Z,99.69
2023-03-10T03:57:01.447Z,99.99
2023-03-10T03:57:57.179Z,99.59
2023-03-10T03:58:57.205Z,99.69
2023-03-10T03:59:57.152Z,99.90
2023-03-10T04:00:57.154Z,98.67
2023-03-10T04:01:57.193Z,98.57
2023-03-10T04:02:57.209Z,99.08
2023-03-10T04:03:57.272Z,98.97
2023-03-10T04:04:57.127Z,99.08
2023-03-10T04:05:57.127Z,98.57
2023-03-10T04:06:57.192Z,98.77
2023-03-10T04:07:57.134Z,98.97
2023-03-10T04:08:57.150Z,99.38
2023-03-10T04:09:57.112Z,98.16
2023-03-10T04:10:57.122Z,99.38
2023-03-10T04:11:57.084Z,99.28
2023-03-10T04:12:57.120Z,99.08
2023-03-10T04:13:57.090Z,99.08
2023-03-10T04:14:57.085Z,99.02
2023-03-10T04:15:57.079Z,98.71
2023-03-10T04:16:57.060Z,98.82
2023-03-10T04:17:57.042Z,99.38
2023-03-10T04:18:57.053Z,99.22
2023-03-10T04:20:06.602Z,99.28
2023-03-10T04:20:58.308Z,98.82
2023-03-10T04:21:57.008Z,98.87
2023-03-10T04:22:56.998Z,98.77
2023-03-10T04:23:56.992Z,98.82
2023-03-10T04:24:57.002Z,99.12
2023-03-10T04:25:57.003Z,99.08
2023-03-10T04:26:57.012Z,98.87
2023-03-10T04:27:56.955Z,99.12
2023-03-10T04:28:56.974Z,99.38
2023-03-10T04:29:56.973Z,98.97
2023-03-10T04:30:57.018Z,99.08
2023-03-10T04:32:05.089Z,98.92
2023-03-10T04:32:58.048Z,99.02
2023-03-10T04:33:56.907Z,98.87
2023-03-10T04:34:56.920Z,98.46
2023-03-10T04:35:56.957Z,98.41
2023-03-10T04:36:56.891Z,99.18
2023-03-10T04:37:56.898Z,98.51
2023-03-10T04:38:56.936Z,98.41
2023-03-10T04:39:56.897Z,99.33
2023-03-10T04:40:56.894Z,98.92
2023-03-10T04:41:56.877Z,98.61
2023-03-10T04:42:56.871Z,98.41
2023-03-10T04:43:56.859Z,98.61
2023-03-10T04:44:56.894Z,98.30
2023-03-10T04:45:56.894Z,98.41
2023-03-10T04:46:56.872Z,98.20
2023-03-10T04:47:56.835Z,99.33
2023-03-10T04:48:56.848Z,98.86
2023-03-10T04:49:56.979Z,99.22
2023-03-10T04:50:56.902Z,99.17
2023-03-10T04:51:56.830Z,99.07
2023-03-10T04:52:56.798Z,99.12
2023-03-10T04:53:56.807Z,99.27
2023-03-10T04:54:56.777Z,99.02
2023-03-10T04:55:56.796Z,98.92
2023-03-10T04:56:56.816Z,99.12
2023-03-10T04:58:01.796Z,99.22
2023-03-10T04:58:56.753Z,99.02
2023-03-10T04:59:56.832Z,99.27
2023-03-10T05:01:03.172Z,99.17
2023-03-10T05:01:57.842Z,99.07
2023-03-10T05:02:56.728Z,98.76
2023-03-10T05:03:56.752Z,98.76
2023-03-10T05:04:56.700Z,99.27
2023-03-10T05:05:56.696Z,98.96
2023-03-10T05:06:56.711Z,99.07
2023-03-10T05:07:56.724Z,99.17
2023-03-10T05:08:56.708Z,98.45
2023-03-10T05:09:56.702Z,98.35
2023-03-10T05:10:56.669Z,98.66
2023-03-10T05:11:56.681Z,99.38
2023-03-10T05:12:56.643Z,98.25
2023-03-10T05:13:56.680Z,99.48
2023-03-10T05:14:56.647Z,98.76
2023-03-10T05:15:56.711Z,98.66
2023-03-10T05:16:56.633Z,98.96
2023-03-10T05:17:56.609Z,99.07
2023-03-10T05:18:56.653Z,98.04
2023-03-10T05:19:56.648Z,97.73
2023-03-10T05:20:56.612Z,97.83
2023-03-10T05:21:56.582Z,97.28
2023-03-10T05:22:56.593Z,97.73
2023-03-10T05:23:56.594Z,97.02
2023-03-10T05:24:56.543Z,97.28
2023-03-10T05:25:56.888Z,97.63
2023-03-10T05:26:56.540Z,97.12
2023-03-10T05:27:56.559Z,97.53
2023-03-10T05:28:56.528Z,97.48
2023-03-10T05:29:56.517Z,97.69
2023-03-10T05:30:56.579Z,96.87
2023-03-10T05:31:56.612Z,96.77
2023-03-10T05:32:56.564Z,96.87
2023-03-10T05:33:56.487Z,96.50
2023-03-10T05:34:56.491Z,96.87
2023-03-10T05:35:56.521Z,96.66
2023-03-10T05:36:56.487Z,96.25
2023-03-10T05:37:56.522Z,96.40
2023-03-10T05:38:56.447Z,96.56
2023-03-10T05:39:56.478Z,96.30
2023-03-10T05:40:56.448Z,96.04
2023-03-10T05:41:56.448Z,96.19
2023-03-10T05:42:56.410Z,96.25
2023-03-10T05:43:56.459Z,96.35
2023-03-10T05:44:56.409Z,96.35
2023-03-10T05:45:56.407Z,96.04
2023-03-10T05:46:56.488Z,95.84
2023-03-10T05:47:56.395Z,96.19
2023-03-10T05:48:56.409Z,96.25
2023-03-10T05:49:56.409Z,95.84
2023-03-10T05:50:56.362Z,96.04
2023-03-10T05:51:56.431Z,95.89
2023-03-10T05:52:56.353Z,95.78
2023-03-10T05:53:56.367Z,95.53
2023-03-10T05:54:56.332Z,96.04
2023-03-10T05:55:56.379Z,96.19
2023-03-10T05:56:56.346Z,96.09
2023-03-10T05:57:56.315Z,97.73
2023-03-10T05:58:56.300Z,97.53
2023-03-10T06:00:01.717Z,97.12
2023-03-10T06:00:56.299Z,97.32
2023-03-10T06:01:56.336Z,97.53
2023-03-10T06:02:56.298Z,97.83
2023-03-10T06:03:56.307Z,97.73
2023-03-10T06:04:56.256Z,97.42
2023-03-10T06:05:56.380Z,98.04
2023-03-10T06:06:56.248Z,97.83
2023-03-10T06:07:56.290Z,97.63
2023-03-10T06:08:56.291Z,97.94
2023-03-10T06:09:56.241Z,98.04
2023-03-10T06:10:56.210Z,98.35
2023-03-10T06:11:56.224Z,97.63
2023-03-10T06:12:56.221Z,97.63
2023-03-10T06:13:56.271Z,97.63
2023-03-10T06:14:56.182Z,98.25
2023-03-10T06:15:56.313Z,97.73
2023-03-10T06:16:56.171Z,97.83
2023-03-10T06:17:56.172Z,97.73
2023-03-10T06:18:56.173Z,97.83
2023-03-10T06:19:56.297Z,97.73
2023-03-10T06:20:56.159Z,98.55
2023-03-10T06:21:56.131Z,98.55
2023-03-10T06:22:56.152Z,98.76
2023-03-10T06:23:56.137Z,98.76
2023-03-10T06:24:56.144Z,98.55
2023-03-10T06:25:56.145Z,98.35
2023-03-10T06:26:56.093Z,98.25
2023-03-10T06:27:56.121Z,99.17
2023-03-10T06:28:56.083Z,99.17
2023-03-10T06:29:56.093Z,99.17
2023-03-10T06:30:56.058Z,98.66
2023-03-10T06:31:56.410Z,99.58
2023-03-10T06:32:56.089Z,99.68
2023-03-10T06:33:56.056Z,99.99
2023-03-10T06:34:56.059Z,99.99
2023-03-10T06:35:56.134Z,99.99
2023-03-10T06:36:56.058Z,99.99
2023-03-10T06:37:56.046Z,99.99
2023-03-10T06:38:56.030Z,99.99
2023-03-10T06:39:56.004Z,99.99
2023-03-10T06:40:56.039Z,99.99
2023-03-10T06:41:56.013Z,99.99
2023-03-10T06:42:55.992Z,99.99
2023-03-10T06:43:56.165Z,99.99
2023-03-10T06:44:56.015Z,99.99
2023-03-10T06:45:56.127Z,99.99
2023-03-10T06:46:55.977Z,99.99
2023-03-10T06:47:56.085Z,99.43
2023-03-10T06:48:55.954Z,99.22
2023-03-10T06:49:56.147Z,99.02
2023-03-10T06:50:55.934Z,98.77
2023-03-10T06:51:56.016Z,99.22
2023-03-10T06:52:55.903Z,99.08
2023-03-10T06:53:55.912Z,99.38
2023-03-10T06:54:56.020Z,99.08
2023-03-10T06:55:56.250Z,99.08
2023-03-10T06:56:55.927Z,98.97
2023-03-10T06:57:56.041Z,98.87
2023-03-10T06:58:55.870Z,97.85
2023-03-10T06:59:55.989Z,98.25
2023-03-10T07:00:55.999Z,97.13
2023-03-10T07:01:55.895Z,97.03
2023-03-10T07:02:55.845Z,97.64
2023-03-10T07:03:56.003Z,97.85
2023-03-10T07:04:55.903Z,97.64
2023-03-10T07:05:55.881Z,96.51
2023-03-10T07:06:55.800Z,96.20
2023-03-10T07:07:55.941Z,96.31
2023-03-10T07:08:55.796Z,96.31
2023-03-10T07:09:55.946Z,96.31
2023-03-10T07:10:55.804Z,96.10
2023-03-10T07:11:55.914Z,96.10
2023-03-10T07:12:55.776Z,95.24
2023-03-10T07:13:55.962Z,94.42
2023-03-10T07:14:55.780Z,94.42
2023-03-10T07:15:59.879Z,94.21
2023-03-10T07:16:55.774Z,93.44
2023-03-10T07:17:55.832Z,93.80
2023-03-10T07:18:55.719Z,94.11
2023-03-10T07:19:56.126Z,93.80
2023-03-10T07:20:55.729Z,93.29
2023-03-10T07:21:55.833Z,92.94
2023-03-10T07:22:55.700Z,93.45
2023-03-10T07:23:55.705Z,94.11
2023-03-10T07:24:55.683Z,93.15
2023-03-10T07:25:55.850Z,93.19
2023-03-10T07:26:55.680Z,93.35
2023-03-10T07:27:55.739Z,93.45
2023-03-10T07:28:55.655Z,92.98
2023-03-10T07:29:55.833Z,93.29
2023-03-10T07:30:55.673Z,93.90
2023-03-10T07:31:55.760Z,93.86
2023-03-10T07:32:55.713Z,93.25
2023-03-10T07:33:55.598Z,93.76
2023-03-10T07:34:55.618Z,94.17
2023-03-10T07:35:55.740Z,94.27
2023-03-10T07:36:55.581Z,93.45
2023-03-10T07:37:56.068Z,94.07
2023-03-10T07:38:55.572Z,93.55
2023-03-10T07:39:55.655Z,94.07
2023-03-10T07:40:55.559Z,94.58
2023-03-10T07:41:55.642Z,94.99
2023-03-10T07:42:55.561Z,94.99
2023-03-10T07:43:55.720Z,94.64
2023-03-10T07:44:55.553Z,94.02
2023-03-10T07:45:55.987Z,94.23
2023-03-10T07:46:55.516Z,94.58
2023-03-10T07:47:55.659Z,94.68
2023-03-10T07:48:55.529Z,95.36
2023-03-10T07:49:55.699Z,95.15
2023-03-10T07:50:55.498Z,94.33
2023-03-10T07:51:55.652Z,94.23
2023-03-10T07:52:55.525Z,94.08
2023-03-10T07:53:55.631Z,93.37
2023-03-10T07:54:55.504Z,92.40
2023-03-10T07:55:55.634Z,92.15
2023-03-10T07:56:55.469Z,91.39
2023-03-10T07:57:55.534Z,90.62
2023-03-10T07:58:55.426Z,90.43
2023-03-10T07:59:55.580Z,89.35
2023-03-10T08:00:55.422Z,89.61
2023-03-10T08:01:55.661Z,89.67
2023-03-10T08:02:55.404Z,88.31
2023-03-10T08:03:58.025Z,86.83
2023-03-10T08:04:55.497Z,86.98
2023-03-10T08:05:55.555Z,86.53
2023-03-10T08:06:55.379Z,85.71
2023-03-10T08:07:55.784Z,85.82
2023-03-10T08:08:55.365Z,86.02
2023-03-10T08:09:55.451Z,86.33
2023-03-10T08:10:55.390Z,85.21
2023-03-10T08:11:55.523Z,85.45
2023-03-10T08:12:55.346Z,86.10
2023-03-10T08:13:55.612Z,86.67
2023-03-10T08:14:55.312Z,87.02
2023-03-10T08:15:55.456Z,87.63
2023-03-10T08:16:55.309Z,87.37
2023-03-10T08:17:55.408Z,88.08
2023-03-10T08:18:55.296Z,87.26
2023-03-10T08:19:55.488Z,88.18
2023-03-10T08:20:55.307Z,88.39
2023-03-10T08:21:55.428Z,87.47
2023-03-10T08:22:55.323Z,88.08
2023-03-10T08:23:55.252Z,88.74
2023-03-10T08:24:55.267Z,88.02
2023-03-10T08:25:55.402Z,87.92
2023-03-10T08:26:55.217Z,87.71
2023-03-10T08:27:55.372Z,88.02
2023-03-10T08:28:55.249Z,87.71
2023-03-10T08:29:55.327Z,87.67
2023-03-10T08:31:04.089Z,87.26
2023-03-10T08:31:56.314Z,87.20
2023-03-10T08:32:55.304Z,87.67
2023-03-10T08:33:55.664Z,87.84
2023-03-10T08:34:55.169Z,86.71
2023-03-10T08:35:55.349Z,86.61
2023-03-10T08:36:55.163Z,86.91
2023-03-10T08:37:55.624Z,86.61
2023-03-10T08:38:55.128Z,86.71
2023-03-10T08:39:55.235Z,86.61
2023-03-10T08:40:55.149Z,87.12
2023-03-10T08:41:55.220Z,87.02
2023-03-10T08:42:55.098Z,87.12
2023-03-10T08:43:55.279Z,86.71
2023-03-10T08:44:55.098Z,86.00
2023-03-10T08:45:55.238Z,86.47
2023-03-10T08:46:55.134Z,85.75
2023-03-10T08:47:55.229Z,85.75
2023-03-10T08:48:55.065Z,85.55
2023-03-10T08:49:55.235Z,85.55
2023-03-10T08:50:55.045Z,85.18
2023-03-10T08:51:55.156Z,86.16
2023-03-10T08:52:55.061Z,86.57
2023-03-10T08:53:55.188Z,86.57
2023-03-10T08:54:55.029Z,85.65
2023-03-10T08:55:55.430Z,85.75
2023-03-10T08:56:55.018Z,85.75
2023-03-10T08:57:55.114Z,85.55
2023-03-10T08:58:54.978Z,85.35
2023-03-10T08:59:55.135Z,85.82
2023-03-10T09:00:54.973Z,85.41
2023-03-10T09:01:55.173Z,85.30
2023-03-10T09:02:55.002Z,84.69
2023-03-10T09:03:55.051Z,84.39
2023-03-10T09:04:54.964Z,84.34
2023-03-10T09:05:55.168Z,84.66
2023-03-10T09:06:54.945Z,84.25
2023-03-10T09:07:55.125Z,83.43
2023-03-10T09:08:54.939Z,83.23
2023-03-10T09:09:55.120Z,83.23
2023-03-10T09:10:54.917Z,82.92
2023-03-10T09:11:55.045Z,82.71
2023-03-10T09:13:11.035Z,82.45
2023-03-10T09:13:56.001Z,83.53
2023-03-10T09:14:54.861Z,83.26
2023-03-10T09:15:55.037Z,82.35
2023-03-10T09:16:54.915Z,82.75
2023-03-10T09:17:55.023Z,82.24
2023-03-10T09:18:54.831Z,82.96
2023-03-10T09:19:55.257Z,83.26
2023-03-10T09:20:54.847Z,82.65
2023-03-10T09:21:54.914Z,83.26
2023-03-10T09:22:54.822Z,82.55
2023-03-10T09:23:54.840Z,82.35
2023-03-10T09:24:54.816Z,82.49
2023-03-10T09:25:54.967Z,83.20
2023-03-10T09:26:54.826Z,83.30
2023-03-10T09:27:55.055Z,82.86
2023-03-10T09:28:56.866Z,83.40
2023-03-10T09:29:54.866Z,83.00
2023-03-10T09:30:54.742Z,83.71
2023-03-10T09:31:55.064Z,83.54
2023-03-10T09:32:54.769Z,84.06
2023-03-10T09:33:55.157Z,83.24
2023-03-10T09:34:54.724Z,83.24
2023-03-10T09:36:06.477Z,83.85
2023-03-10T09:36:55.750Z,83.44
2023-03-10T09:37:54.852Z,83.34
2023-03-10T09:38:54.711Z,83.48
2023-03-10T09:39:54.795Z,84.00
2023-03-10T09:40:54.670Z,83.28
2023-03-10T09:41:54.767Z,84.41
2023-03-10T09:42:54.911Z,84.50
2023-03-10T09:43:55.524Z,84.71
2023-03-10T09:44:54.630Z,84.81
2023-03-10T09:45:54.841Z,85.36
2023-03-10T09:46:54.977Z,87.30
2023-03-10T09:47:54.787Z,87.61
2023-03-10T09:48:54.652Z,88.37
2023-03-10T09:49:54.773Z,89.50
2023-03-10T09:50:54.590Z,89.80
2023-03-10T09:51:55.731Z,89.90
2023-03-10T09:52:54.580Z,90.17
2023-03-10T09:53:54.735Z,89.56
2023-03-10T09:54:54.651Z,90.23
2023-03-10T09:55:54.704Z,90.02
2023-03-10T09:56:55.655Z,89.82
2023-03-10T09:57:54.666Z,90.02
2023-03-10T09:58:54.558Z,90.06
2023-03-10T09:59:54.699Z,89.76
2023-03-10T10:00:54.572Z,88.84
2023-03-10T10:01:55.587Z,89.45
2023-03-10T10:02:54.548Z,89.45
2023-03-10T10:03:54.707Z,90.72
2023-03-10T10:04:54.596Z,89.90
2023-03-10T10:05:55.641Z,90.31
2023-03-10T10:06:54.569Z,90.92
2023-03-10T10:07:54.600Z,92.25
2023-03-10T10:09:03.488Z,90.31
2023-03-10T10:09:55.466Z,90.97
2023-03-10T10:10:54.516Z,92.40
2023-03-10T10:11:55.525Z,93.32
2023-03-10T10:12:54.479Z,92.81
2023-03-10T10:13:54.504Z,93.32
2023-03-10T10:14:57.517Z,94.29
2023-03-10T10:16:12.959Z,92.79
2023-03-10T10:16:55.441Z,95.36
2023-03-10T10:18:00.598Z,95.87
2023-03-10T10:18:55.458Z,94.99
2023-03-10T10:19:55.093Z,94.07
2023-03-10T10:20:54.459Z,93.71
2023-03-10T10:21:54.381Z,93.37
2023-03-10T10:22:54.555Z,93.37
2023-03-10T10:23:54.401Z,93.99
2023-03-10T10:24:54.518Z,93.13
2023-03-10T10:25:54.340Z,92.07
2023-03-10T10:26:54.383Z,93.19
2023-03-10T10:27:54.329Z,92.11
2023-03-10T10:28:54.308Z,92.42
2023-03-10T10:29:54.308Z,93.54
2023-03-10T10:30:54.375Z,92.83
2023-03-10T10:31:54.340Z,93.13
2023-03-10T10:32:54.478Z,92.52
2023-03-10T10:33:54.325Z,92.37
2023-03-10T10:34:54.297Z,91.96
2023-03-10T10:35:54.317Z,92.58
2023-03-10T10:36:54.329Z,92.84
2023-03-10T10:37:54.293Z,92.13
2023-03-10T10:38:54.250Z,91.61
2023-03-10T10:39:54.240Z,90.70
2023-03-10T10:40:54.257Z,90.55
2023-03-10T10:41:54.249Z,90.86
2023-03-10T10:42:54.567Z,91.98
2023-03-10T10:43:54.232Z,88.78
2023-03-10T10:44:54.287Z,89.00
2023-03-10T10:45:54.400Z,84.76
2023-03-10T10:46:54.255Z,82.54
2023-03-10T10:47:54.189Z,80.74
2023-03-10T10:48:54.695Z,79.75
2023-03-10T10:49:54.217Z,76.20
2023-03-10T10:50:54.185Z,75.26
2023-03-10T10:51:55.619Z,75.49
2023-03-10T10:52:54.143Z,76.17
2023-03-10T10:53:54.135Z,77.08
2023-03-10T10:54:54.207Z,76.51
2023-03-10T10:55:54.139Z,74.24
2023-03-10T10:56:54.177Z,72.58
2023-03-10T10:57:54.186Z,71.16
2023-03-10T10:58:54.201Z,70.05
2023-03-10T10:59:54.133Z,70.62
2023-03-10T11:00:54.215Z,72.92
2023-03-10T11:01:54.200Z,71.16
2023-03-10T11:02:54.104Z,69.98
2023-03-10T11:03:54.154Z,69.61
2023-03-10T11:04:54.070Z,68.60
2023-03-10T11:05:56.301Z,70.59
2023-03-10T11:06:54.121Z,70.79
2023-03-10T11:07:54.140Z,71.03
2023-03-10T11:08:54.046Z,69.44
2023-03-10T11:09:54.026Z,70.28
2023-03-10T11:10:54.035Z,71.53
2023-03-10T11:11:53.983Z,74.38
2023-03-10T11:12:54.023Z,74.76
2023-03-10T11:13:53.970Z,74.35
2023-03-10T11:14:55.090Z,73.97
2023-03-10T11:15:53.997Z,75.95
2023-03-10T11:16:53.986Z,75.88
2023-03-10T11:17:53.935Z,77.24
2023-03-10T11:18:54.117Z,78.16
2023-03-10T11:19:53.932Z,78.39
2023-03-10T11:20:53.926Z,78.70
2023-03-10T11:21:53.943Z,79.52
2023-03-10T11:22:53.927Z,79.25
2023-03-10T11:23:53.985Z,80.47
2023-03-10T11:24:53.956Z,81.49
2023-03-10T11:25:53.981Z,82.61
2023-03-10T11:26:53.899Z,82.51
2023-03-10T11:27:53.912Z,82.51
2023-03-10T11:28:53.882Z,82.51
2023-03-10T11:29:53.941Z,81.90
2023-03-10T11:30:53.989Z,82.86
2023-03-10T11:31:53.854Z,83.26
2023-03-10T11:32:53.919Z,82.92
2023-03-10T11:33:53.868Z,82.14
2023-03-10T11:34:53.824Z,82.92
2023-03-10T11:35:53.908Z,81.41
2023-03-10T11:36:56.829Z,82.61
2023-03-10T11:37:53.831Z,80.65
2023-03-10T11:38:53.863Z,77.12
2023-03-10T11:39:53.800Z,76.86
2023-03-10T11:40:54.605Z,75.46
2023-03-10T11:41:53.832Z,74.44
2023-03-10T11:42:53.854Z,71.44
2023-03-10T11:43:53.800Z,75.40
2023-03-10T11:44:53.749Z,71.30
2023-03-10T11:45:53.857Z,76.25
2023-03-10T11:46:53.782Z,75.60
2023-03-10T11:47:53.801Z,77.84
2023-03-10T11:48:54.218Z,76.79
2023-03-10T11:49:53.736Z,77.75
2023-03-10T11:50:54.800Z,79.07
2023-03-10T11:51:53.723Z,77.64
2023-03-10T11:52:53.687Z,76.62
2023-03-10T11:53:53.696Z,78.26
2023-03-10T11:54:53.738Z,75.54
2023-03-10T11:55:53.693Z,74.83
2023-03-10T11:56:53.643Z,75.47
2023-03-10T11:57:53.713Z,73.94
2023-03-10T11:58:53.662Z,74.38
2023-03-10T11:59:53.715Z,76.08
2023-03-10T12:00:53.695Z,74.25
2023-03-10T12:01:53.677Z,74.25
2023-03-10T12:02:53.620Z,74.86
2023-03-10T12:03:53.722Z,75.02
2023-03-10T12:04:53.600Z,74.82
2023-03-10T12:05:53.743Z,73.02
2023-03-10T12:06:53.643Z,74.65
2023-03-10T12:07:53.583Z,74.45
2023-03-10T12:08:53.670Z,75.06
2023-03-10T12:09:53.571Z,74.89
2023-03-10T12:10:53.580Z,71.50
2023-03-10T12:11:53.537Z,72.01
2023-03-10T12:12:53.638Z,71.84
2023-03-10T12:13:53.530Z,74.08
2023-03-10T12:14:53.595Z,73.06
2023-03-10T12:15:53.573Z,71.33
2023-03-10T12:16:53.519Z,69.36
2023-03-10T12:17:53.517Z,69.67
2023-03-10T12:18:53.540Z,70.01
2023-03-10T12:19:53.542Z,69.49
2023-03-10T12:20:53.546Z,69.73
2023-03-10T12:21:53.499Z,69.53
2023-03-10T12:22:53.538Z,70.55
2023-03-10T12:23:53.524Z,69.12
2023-03-10T12:24:53.981Z,69.15
2023-03-10T12:25:53.477Z,68.85
2023-03-10T12:26:53.549Z,70.55
2023-03-10T12:27:53.463Z,69.53
2023-03-10T12:28:53.475Z,69.60
2023-03-10T12:29:53.435Z,70.01
2023-03-10T12:30:53.526Z,68.96
2023-03-10T12:31:53.532Z,67.43
2023-03-10T12:32:53.485Z,67.53
2023-03-10T12:33:53.480Z,68.07
2023-03-10T12:34:53.476Z,67.63
2023-03-10T12:35:53.514Z,67.02
2023-03-10T12:36:53.553Z,66.12
2023-03-10T12:37:53.479Z,65.21
2023-03-10T12:38:53.436Z,62.54
2023-03-10T12:39:53.447Z,61.97
2023-03-10T12:40:53.420Z,62.07
2023-03-10T12:41:53.412Z,62.60
2023-03-10T12:42:53.401Z,63.85
2023-03-10T12:43:53.346Z,62.98
2023-03-10T12:44:53.370Z,63.01
2023-03-10T12:45:53.395Z,63.26
2023-03-10T12:46:53.371Z,62.08
2023-03-10T12:47:53.309Z,60.57
2023-03-10T12:48:53.820Z,62.92
2023-03-10T12:49:53.345Z,62.24
2023-03-10T12:50:54.361Z,62.95
2023-03-10T12:51:53.297Z,63.39
2023-03-10T12:52:53.324Z,65.14